sensor_id;sensor_type;location;lat;lon;timestamp;temperature;humidity
46085;DHT22;31823;47.032;8.310;2022-07-23T00:00:33;18.80;99.90
46085;DHT22;31823;47.032;8.310;2022-07-23T00:02:59;18.80;99.90
46085;DHT22;31823;47.032;8.310;2022-07-23T00:05:25;18.80;99.90
46085;DHT22;31823;47.032;8.310;2022-07-23T00:07:50;18.70;99.90
46085;DHT22;31823;47.032;8.310;2022-07-23T00:10:16;18.90;99.90
46085;DHT22;31823;47.032;8.310;2022-07-23T00:12:42;18.90;99.90
46085;DHT22;31823;47.032;8.310;2022-07-23T00:15:08;18.80;99.90
46085;DHT22;31823;47.032;8.310;2022-07-23T00:17:34;18.90;99.90
46085;DHT22;31823;47.032;8.310;2022-07-23T00:20:00;18.90;99.90
46085;DHT22;31823;47.032;8.310;2022-07-23T00:22:25;18.90;99.90
46085;DHT22;31823;47.032;8.310;2022-07-23T00:24:53;19.00;99.90
46085;DHT22;31823;47.032;8.310;2022-07-23T00:27:18;19.00;99.90
46085;DHT22;31823;47.032;8.310;2022-07-23T00:29:44;19.10;99.90
46085;DHT22;31823;47.032;8.310;2022-07-23T00:32:09;19.00;99.90
46085;DHT22;31823;47.032;8.310;2022-07-23T00:34:35;19.10;99.90
46085;DHT22;31823;47.032;8.310;2022-07-23T00:37:01;19.10;99.90
46085;DHT22;31823;47.032;8.310;2022-07-23T00:39:26;19.00;99.90
46085;DHT22;31823;47.032;8.310;2022-07-23T00:41:52;19.10;99.90
46085;DHT22;31823;47.032;8.310;2022-07-23T00:44:24;19.20;99.90
46085;DHT22;31823;47.032;8.310;2022-07-23T00:46:53;19.20;99.90
46085;DHT22;31823;47.032;8.310;2022-07-23T00:49:23;19.10;99.90
46085;DHT22;31823;47.032;8.310;2022-07-23T00:51:50;19.00;99.90
46085;DHT22;31823;47.032;8.310;2022-07-23T00:54:17;19.00;99.90
46085;DHT22;31823;47.032;8.310;2022-07-23T00:56:44;19.00;99.90
46085;DHT22;31823;47.032;8.310;2022-07-23T00:59:10;18.90;99.90
46085;DHT22;31823;47.032;8.310;2022-07-23T01:01:37;18.90;99.90
46085;DHT22;31823;47.032;8.310;2022-07-23T01:04:03;19.00;99.90
46085;DHT22;31823;47.032;8.310;2022-07-23T01:06:32;19.10;99.90
46085;DHT22;31823;47.032;8.310;2022-07-23T01:08:59;19.10;99.90
46085;DHT22;31823;47.032;8.310;2022-07-23T01:11:25;19.00;99.90
46085;DHT22;31823;47.032;8.310;2022-07-23T01:13:50;18.90;99.90
46085;DHT22;31823;47.032;8.310;2022-07-23T01:16:16;18.90;99.90
46085;DHT22;31823;47.032;8.310;2022-07-23T01:18:42;18.90;99.90
46085;DHT22;31823;47.032;8.310;2022-07-23T01:21:10;19.00;99.90
46085;DHT22;31823;47.032;8.310;2022-07-23T01:23:38;19.10;99.90
46085;DHT22;31823;47.032;8.310;2022-07-23T01:26:04;18.90;99.90
46085;DHT22;31823;47.032;8.310;2022-07-23T01:28:30;18.80;99.90
46085;DHT22;31823;47.032;8.310;2022-07-23T01:30:55;18.70;99.90
46085;DHT22;31823;47.032;8.310;2022-07-23T01:33:21;18.70;99.90
46085;DHT22;31823;47.032;8.310;2022-07-23T01:35:47;18.60;99.90
46085;DHT22;31823;47.032;8.310;2022-07-23T01:38:12;18.60;99.90
46085;DHT22;31823;47.032;8.310;2022-07-23T01:40:38;18.60;99.90
46085;DHT22;31823;47.032;8.310;2022-07-23T01:43:04;18.70;99.90
46085;DHT22;31823;47.032;8.310;2022-07-23T01:45:29;18.50;99.90
46085;DHT22;31823;47.032;8.310;2022-07-23T01:47:55;18.60;99.90
46085;DHT22;31823;47.032;8.310;2022-07-23T01:50:21;18.70;99.90
46085;DHT22;31823;47.032;8.310;2022-07-23T01:53:06;18.70;99.90
46085;DHT22;31823;47.032;8.310;2022-07-23T01:55:32;18.50;99.90
46085;DHT22;31823;47.032;8.310;2022-07-23T01:57:57;18.60;99.90
46085;DHT22;31823;47.032;8.310;2022-07-23T02:00:23;18.70;99.90
46085;DHT22;31823;47.032;8.310;2022-07-23T02:02:49;18.70;99.90
46085;DHT22;31823;47.032;8.310;2022-07-23T02:05:14;18.70;99.90
46085;DHT22;31823;47.032;8.310;2022-07-23T02:07:40;18.70;99.90
46085;DHT22;31823;47.032;8.310;2022-07-23T02:10:06;18.70;99.90
46085;DHT22;31823;47.032;8.310;2022-07-23T02:12:32;18.70;99.90
46085;DHT22;31823;47.032;8.310;2022-07-23T02:14:58;18.70;99.90
46085;DHT22;31823;47.032;8.310;2022-07-23T02:17:23;18.80;99.90
46085;DHT22;31823;47.032;8.310;2022-07-23T02:19:49;18.80;99.90
46085;DHT22;31823;47.032;8.310;2022-07-23T02:22:14;18.80;99.90
46085;DHT22;31823;47.032;8.310;2022-07-23T02:24:40;18.70;99.90
46085;DHT22;31823;47.032;8.310;2022-07-23T02:27:06;18.80;99.90
46085;DHT22;31823;47.032;8.310;2022-07-23T02:29:31;18.80;99.90
46085;DHT22;31823;47.032;8.310;2022-07-23T02:31:57;18.80;99.90
46085;DHT22;31823;47.032;8.310;2022-07-23T02:34:22;18.90;99.90
46085;DHT22;31823;47.032;8.310;2022-07-23T02:36:48;19.00;99.90
46085;DHT22;31823;47.032;8.310;2022-07-23T02:39:14;19.00;99.90
46085;DHT22;31823;47.032;8.310;2022-07-23T02:41:39;18.90;99.90
46085;DHT22;31823;47.032;8.310;2022-07-23T02:44:05;19.00;99.90
46085;DHT22;31823;47.032;8.310;2022-07-23T02:46:31;19.10;99.90
46085;DHT22;31823;47.032;8.310;2022-07-23T02:48:56;19.10;99.90
46085;DHT22;31823;47.032;8.310;2022-07-23T02:51:22;19.10;99.90
46085;DHT22;31823;47.032;8.310;2022-07-23T02:53:48;19.00;99.90
46085;DHT22;31823;47.032;8.310;2022-07-23T02:56:13;19.00;99.90
46085;DHT22;31823;47.032;8.310;2022-07-23T02:58:39;19.00;99.90
46085;DHT22;31823;47.032;8.310;2022-07-23T03:01:04;19.00;99.90
46085;DHT22;31823;47.032;8.310;2022-07-23T03:03:30;19.00;99.90
46085;DHT22;31823;47.032;8.310;2022-07-23T03:05:56;19.00;99.90
46085;DHT22;31823;47.032;8.310;2022-07-23T03:08:22;19.10;99.90
46085;DHT22;31823;47.032;8.310;2022-07-23T03:10:47;19.10;99.90
46085;DHT22;31823;47.032;8.310;2022-07-23T03:13:13;19.00;99.90
46085;DHT22;31823;47.032;8.310;2022-07-23T03:15:38;18.90;99.90
46085;DHT22;31823;47.032;8.310;2022-07-23T03:18:04;19.00;99.90
46085;DHT22;31823;47.032;8.310;2022-07-23T03:20:30;19.00;99.90
46085;DHT22;31823;47.032;8.310;2022-07-23T03:22:56;19.00;99.90
46085;DHT22;31823;47.032;8.310;2022-07-23T03:25:21;19.00;99.90
46085;DHT22;31823;47.032;8.310;2022-07-23T03:27:47;19.00;99.90
46085;DHT22;31823;47.032;8.310;2022-07-23T03:30:13;18.90;99.90
46085;DHT22;31823;47.032;8.310;2022-07-23T03:32:38;19.00;99.90
46085;DHT22;31823;47.032;8.310;2022-07-23T03:35:04;18.90;99.90
46085;DHT22;31823;47.032;8.310;2022-07-23T03:37:30;19.00;99.90
46085;DHT22;31823;47.032;8.310;2022-07-23T03:39:56;19.00;99.90
46085;DHT22;31823;47.032;8.310;2022-07-23T03:42:21;19.00;99.90
46085;DHT22;31823;47.032;8.310;2022-07-23T03:44:47;19.00;99.90
46085;DHT22;31823;47.032;8.310;2022-07-23T03:47:12;19.00;99.90
46085;DHT22;31823;47.032;8.310;2022-07-23T03:49:38;18.90;99.90
46085;DHT22;31823;47.032;8.310;2022-07-23T03:52:04;19.10;99.90
46085;DHT22;31823;47.032;8.310;2022-07-23T03:54:30;18.90;99.90
46085;DHT22;31823;47.032;8.310;2022-07-23T03:56:55;18.90;99.90
46085;DHT22;31823;47.032;8.310;2022-07-23T03:59:21;18.90;99.90
46085;DHT22;31823;47.032;8.310;2022-07-23T04:01:47;19.00;99.90
46085;DHT22;31823;47.032;8.310;2022-07-23T04:04:13;19.00;99.90
46085;DHT22;31823;47.032;8.310;2022-07-23T04:06:38;19.10;99.90
46085;DHT22;31823;47.032;8.310;2022-07-23T04:09:04;19.10;99.90
46085;DHT22;31823;47.032;8.310;2022-07-23T04:11:30;19.20;99.90
46085;DHT22;31823;47.032;8.310;2022-07-23T04:13:55;19.20;99.90
46085;DHT22;31823;47.032;8.310;2022-07-23T04:16:21;19.10;99.90
46085;DHT22;31823;47.032;8.310;2022-07-23T04:18:47;18.90;99.90
46085;DHT22;31823;47.032;8.310;2022-07-23T04:21:12;18.80;99.90
46085;DHT22;31823;47.032;8.310;2022-07-23T04:23:38;18.80;99.90
46085;DHT22;31823;47.032;8.310;2022-07-23T04:26:03;18.80;99.90
46085;DHT22;31823;47.032;8.310;2022-07-23T04:28:29;18.80;99.90
46085;DHT22;31823;47.032;8.310;2022-07-23T04:30:58;18.70;99.90
46085;DHT22;31823;47.032;8.310;2022-07-23T04:33:24;18.90;99.90
46085;DHT22;31823;47.032;8.310;2022-07-23T04:35:50;19.00;99.90
46085;DHT22;31823;47.032;8.310;2022-07-23T04:38:15;19.20;99.90
46085;DHT22;31823;47.032;8.310;2022-07-23T04:40:41;19.30;99.90
46085;DHT22;31823;47.032;8.310;2022-07-23T04:43:07;18.90;99.90
46085;DHT22;31823;47.032;8.310;2022-07-23T04:45:32;18.80;99.90
46085;DHT22;31823;47.032;8.310;2022-07-23T04:47:58;18.90;99.90
46085;DHT22;31823;47.032;8.310;2022-07-23T04:50:23;18.80;99.90
46085;DHT22;31823;47.032;8.310;2022-07-23T04:52:49;19.00;99.90
46085;DHT22;31823;47.032;8.310;2022-07-23T04:55:15;19.00;99.90
46085;DHT22;31823;47.032;8.310;2022-07-23T04:57:41;18.90;99.90
46085;DHT22;31823;47.032;8.310;2022-07-23T05:00:08;19.00;99.90
46085;DHT22;31823;47.032;8.310;2022-07-23T05:02:34;18.90;99.90
46085;DHT22;31823;47.032;8.310;2022-07-23T05:04:59;19.20;99.90
46085;DHT22;31823;47.032;8.310;2022-07-23T05:07:25;19.70;99.90
46085;DHT22;31823;47.032;8.310;2022-07-23T05:09:51;19.90;99.90
46085;DHT22;31823;47.032;8.310;2022-07-23T05:12:16;20.10;99.90
46085;DHT22;31823;47.032;8.310;2022-07-23T05:14:42;20.10;99.90
46085;DHT22;31823;47.032;8.310;2022-07-23T05:17:08;20.30;99.90
46085;DHT22;31823;47.032;8.310;2022-07-23T05:19:34;20.40;99.90
46085;DHT22;31823;47.032;8.310;2022-07-23T05:22:00;20.40;99.90
46085;DHT22;31823;47.032;8.310;2022-07-23T05:24:26;20.30;99.90
46085;DHT22;31823;47.032;8.310;2022-07-23T05:26:52;20.30;99.90
46085;DHT22;31823;47.032;8.310;2022-07-23T05:29:18;20.20;99.90
46085;DHT22;31823;47.032;8.310;2022-07-23T05:31:43;19.90;99.90
46085;DHT22;31823;47.032;8.310;2022-07-23T05:34:09;19.70;99.90
46085;DHT22;31823;47.032;8.310;2022-07-23T05:36:35;19.70;99.90
46085;DHT22;31823;47.032;8.310;2022-07-23T05:39:00;19.80;99.90
46085;DHT22;31823;47.032;8.310;2022-07-23T05:41:26;19.90;99.90
46085;DHT22;31823;47.032;8.310;2022-07-23T05:43:52;19.90;99.90
46085;DHT22;31823;47.032;8.310;2022-07-23T05:46:17;20.00;99.90
46085;DHT22;31823;47.032;8.310;2022-07-23T05:48:43;19.80;99.90
46085;DHT22;31823;47.032;8.310;2022-07-23T05:51:11;19.70;99.90
46085;DHT22;31823;47.032;8.310;2022-07-23T05:53:37;19.70;99.90
46085;DHT22;31823;47.032;8.310;2022-07-23T05:56:03;19.60;99.90
46085;DHT22;31823;47.032;8.310;2022-07-23T05:58:29;19.50;99.90
46085;DHT22;31823;47.032;8.310;2022-07-23T06:00:55;19.30;99.90
46085;DHT22;31823;47.032;8.310;2022-07-23T06:03:21;19.20;99.90
46085;DHT22;31823;47.032;8.310;2022-07-23T06:05:47;19.10;99.90
46085;DHT22;31823;47.032;8.310;2022-07-23T06:08:12;19.10;99.90
46085;DHT22;31823;47.032;8.310;2022-07-23T06:10:38;19.10;99.90
46085;DHT22;31823;47.032;8.310;2022-07-23T06:13:03;19.10;99.90
46085;DHT22;31823;47.032;8.310;2022-07-23T06:15:29;19.20;99.90
46085;DHT22;31823;47.032;8.310;2022-07-23T06:17:56;19.20;99.90
46085;DHT22;31823;47.032;8.310;2022-07-23T06:20:21;19.10;99.90
46085;DHT22;31823;47.032;8.310;2022-07-23T06:22:47;19.20;99.90
46085;DHT22;31823;47.032;8.310;2022-07-23T06:25:13;19.20;99.90
46085;DHT22;31823;47.032;8.310;2022-07-23T06:27:39;19.10;99.90
46085;DHT22;31823;47.032;8.310;2022-07-23T06:30:05;19.20;99.90
46085;DHT22;31823;47.032;8.310;2022-07-23T06:32:31;19.20;99.90
46085;DHT22;31823;47.032;8.310;2022-07-23T06:34:57;19.20;99.90
46085;DHT22;31823;47.032;8.310;2022-07-23T06:37:22;19.20;99.90
46085;DHT22;31823;47.032;8.310;2022-07-23T06:39:48;19.10;99.90
46085;DHT22;31823;47.032;8.310;2022-07-23T06:42:14;19.10;99.90
46085;DHT22;31823;47.032;8.310;2022-07-23T06:44:40;19.20;99.90
46085;DHT22;31823;47.032;8.310;2022-07-23T06:47:06;19.10;99.90
46085;DHT22;31823;47.032;8.310;2022-07-23T06:49:31;19.20;99.90
46085;DHT22;31823;47.032;8.310;2022-07-23T06:51:57;19.10;99.90
46085;DHT22;31823;47.032;8.310;2022-07-23T06:54:22;19.20;99.90
46085;DHT22;31823;47.032;8.310;2022-07-23T06:56:48;19.10;99.90
46085;DHT22;31823;47.032;8.310;2022-07-23T06:59:14;19.10;99.90
46085;DHT22;31823;47.032;8.310;2022-07-23T07:01:39;19.30;99.90
46085;DHT22;31823;47.032;8.310;2022-07-23T07:04:05;19.20;99.90
46085;DHT22;31823;47.032;8.310;2022-07-23T07:06:31;19.20;99.90
46085;DHT22;31823;47.032;8.310;2022-07-23T07:08:56;19.10;99.90
46085;DHT22;31823;47.032;8.310;2022-07-23T07:11:22;19.20;99.90
46085;DHT22;31823;47.032;8.310;2022-07-23T07:13:49;19.30;99.90
46085;DHT22;31823;47.032;8.310;2022-07-23T07:16:15;19.30;99.90
46085;DHT22;31823;47.032;8.310;2022-07-23T07:18:40;19.40;99.90
46085;DHT22;31823;47.032;8.310;2022-07-23T07:21:06;19.50;99.90
46085;DHT22;31823;47.032;8.310;2022-07-23T07:23:31;19.60;99.90
46085;DHT22;31823;47.032;8.310;2022-07-23T07:25:57;19.40;99.90
46085;DHT22;31823;47.032;8.310;2022-07-23T07:28:23;19.30;99.90
46085;DHT22;31823;47.032;8.310;2022-07-23T07:30:48;19.30;99.90
46085;DHT22;31823;47.032;8.310;2022-07-23T07:33:14;19.30;99.90
46085;DHT22;31823;47.032;8.310;2022-07-23T07:35:39;19.30;99.90
46085;DHT22;31823;47.032;8.310;2022-07-23T07:38:05;19.30;99.90
46085;DHT22;31823;47.032;8.310;2022-07-23T07:40:31;19.40;99.90
46085;DHT22;31823;47.032;8.310;2022-07-23T07:42:56;19.40;99.90
46085;DHT22;31823;47.032;8.310;2022-07-23T07:45:23;19.40;99.90
46085;DHT22;31823;47.032;8.310;2022-07-23T07:47:50;19.60;99.90
46085;DHT22;31823;47.032;8.310;2022-07-23T07:50:15;19.60;99.90
46085;DHT22;31823;47.032;8.310;2022-07-23T07:52:41;19.50;99.90
46085;DHT22;31823;47.032;8.310;2022-07-23T07:55:09;19.60;99.90
46085;DHT22;31823;47.032;8.310;2022-07-23T07:57:36;19.60;99.90
46085;DHT22;31823;47.032;8.310;2022-07-23T08:00:06;19.60;99.90
46085;DHT22;31823;47.032;8.310;2022-07-23T08:02:50;19.60;99.90
46085;DHT22;31823;47.032;8.310;2022-07-23T08:05:19;19.80;99.90
46085;DHT22;31823;47.032;8.310;2022-07-23T08:07:46;19.90;99.90
46085;DHT22;31823;47.032;8.310;2022-07-23T08:10:11;19.80;99.90
46085;DHT22;31823;47.032;8.310;2022-07-23T08:12:42;19.80;99.90
46085;DHT22;31823;47.032;8.310;2022-07-23T08:15:10;19.80;99.90
46085;DHT22;31823;47.032;8.310;2022-07-23T08:17:36;20.00;99.90
46085;DHT22;31823;47.032;8.310;2022-07-23T08:20:05;20.00;99.90
46085;DHT22;31823;47.032;8.310;2022-07-23T08:25:12;20.20;99.90
46085;DHT22;31823;47.032;8.310;2022-07-23T08:27:38;20.40;99.90
46085;DHT22;31823;47.032;8.310;2022-07-23T08:30:04;20.50;99.90
46085;DHT22;31823;47.032;8.310;2022-07-23T08:32:30;21.00;99.90
46085;DHT22;31823;47.032;8.310;2022-07-23T08:34:55;21.30;99.90
46085;DHT22;31823;47.032;8.310;2022-07-23T08:37:21;21.30;99.90
46085;DHT22;31823;47.032;8.310;2022-07-23T08:39:47;21.40;99.90
46085;DHT22;31823;47.032;8.310;2022-07-23T08:42:14;21.40;99.90
46085;DHT22;31823;47.032;8.310;2022-07-23T08:44:44;21.40;99.90
46085;DHT22;31823;47.032;8.310;2022-07-23T08:47:11;21.60;99.90
46085;DHT22;31823;47.032;8.310;2022-07-23T08:49:38;21.70;99.90
46085;DHT22;31823;47.032;8.310;2022-07-23T08:52:04;21.60;99.90
46085;DHT22;31823;47.032;8.310;2022-07-23T08:54:31;21.80;99.90
46085;DHT22;31823;47.032;8.310;2022-07-23T08:56:57;21.80;99.90
46085;DHT22;31823;47.032;8.310;2022-07-23T08:59:23;22.00;99.90
46085;DHT22;31823;47.032;8.310;2022-07-23T09:01:48;21.90;99.90
46085;DHT22;31823;47.032;8.310;2022-07-23T09:04:14;22.70;99.90
46085;DHT22;31823;47.032;8.310;2022-07-23T09:06:40;22.30;99.90
46085;DHT22;31823;47.032;8.310;2022-07-23T09:09:19;22.40;99.90
46085;DHT22;31823;47.032;8.310;2022-07-23T09:11:51;22.20;99.90
46085;DHT22;31823;47.032;8.310;2022-07-23T09:14:44;22.50;99.90
46085;DHT22;31823;47.032;8.310;2022-07-23T09:17:16;22.60;99.90
46085;DHT22;31823;47.032;8.310;2022-07-23T09:19:43;22.60;99.90
46085;DHT22;31823;47.032;8.310;2022-07-23T09:22:26;22.70;99.90
46085;DHT22;31823;47.032;8.310;2022-07-23T09:25:11;23.10;99.90
46085;DHT22;31823;47.032;8.310;2022-07-23T09:27:56;22.90;99.90
46085;DHT22;31823;47.032;8.310;2022-07-23T09:30:26;23.40;99.90
46085;DHT22;31823;47.032;8.310;2022-07-23T09:35:55;23.90;99.90
46085;DHT22;31823;47.032;8.310;2022-07-23T09:38:23;24.10;99.90
46085;DHT22;31823;47.032;8.310;2022-07-23T09:41:09;24.20;99.90
46085;DHT22;31823;47.032;8.310;2022-07-23T09:43:35;24.40;99.90
46085;DHT22;31823;47.032;8.310;2022-07-23T09:46:24;24.20;99.90
46085;DHT22;31823;47.032;8.310;2022-07-23T09:48:54;24.30;99.90
46085;DHT22;31823;47.032;8.310;2022-07-23T09:51:22;24.50;99.90
46085;DHT22;31823;47.032;8.310;2022-07-23T09:54:04;23.80;99.90
46085;DHT22;31823;47.032;8.310;2022-07-23T09:56:31;23.80;99.90
46085;DHT22;31823;47.032;8.310;2022-07-23T09:59:00;24.00;99.90
46085;DHT22;31823;47.032;8.310;2022-07-23T10:01:53;24.10;99.90
46085;DHT22;31823;47.032;8.310;2022-07-23T10:04:21;24.30;99.90
46085;DHT22;31823;47.032;8.310;2022-07-23T10:06:47;24.70;99.90
46085;DHT22;31823;47.032;8.310;2022-07-23T10:09:16;25.20;99.90
46085;DHT22;31823;47.032;8.310;2022-07-23T10:11:42;24.20;99.90
46085;DHT22;31823;47.032;8.310;2022-07-23T10:14:08;23.80;99.90
46085;DHT22;31823;47.032;8.310;2022-07-23T10:16:33;23.60;99.90
46085;DHT22;31823;47.032;8.310;2022-07-23T10:18:59;23.70;99.90
46085;DHT22;31823;47.032;8.310;2022-07-23T10:21:45;23.70;99.90
46085;DHT22;31823;47.032;8.310;2022-07-23T10:27:05;24.00;99.90
46085;DHT22;31823;47.032;8.310;2022-07-23T10:34:55;23.60;99.90
46085;DHT22;31823;47.032;8.310;2022-07-23T10:40:20;24.30;99.90
46085;DHT22;31823;47.032;8.310;2022-07-23T10:42:50;24.40;99.90
46085;DHT22;31823;47.032;8.310;2022-07-23T10:45:32;24.80;99.90
46085;DHT22;31823;47.032;8.310;2022-07-23T10:48:24;24.50;99.90
46085;DHT22;31823;47.032;8.310;2022-07-23T10:59:20;24.60;99.90
46085;DHT22;31823;47.032;8.310;2022-07-23T11:01:45;24.90;99.90
46085;DHT22;31823;47.032;8.310;2022-07-23T11:04:11;24.50;99.90
46085;DHT22;31823;47.032;8.310;2022-07-23T11:09:39;25.20;99.90
46085;DHT22;31823;47.032;8.310;2022-07-23T11:25:14;25.40;99.90
46085;DHT22;31823;47.032;8.310;2022-07-23T11:27:54;25.20;99.90
46085;DHT22;31823;47.032;8.310;2022-07-23T11:33:37;24.80;99.90
46085;DHT22;31823;47.032;8.310;2022-07-23T11:35:46;25.80;99.90
46085;DHT22;31823;47.032;8.310;2022-07-23T11:38:22;25.10;99.90
46085;DHT22;31823;47.032;8.310;2022-07-23T11:40:52;25.20;99.90
46085;DHT22;31823;47.032;8.310;2022-07-23T11:43:18;24.60;99.90
46085;DHT22;31823;47.032;8.310;2022-07-23T11:45:47;24.90;99.90
46085;DHT22;31823;47.032;8.310;2022-07-23T11:50:49;24.80;99.90
46085;DHT22;31823;47.032;8.310;2022-07-23T11:53:26;25.20;99.90
46085;DHT22;31823;47.032;8.310;2022-07-23T11:55:53;24.50;99.90
46085;DHT22;31823;47.032;8.310;2022-07-23T11:58:19;24.60;99.90
46085;DHT22;31823;47.032;8.310;2022-07-23T12:00:45;24.40;99.90
46085;DHT22;31823;47.032;8.310;2022-07-23T12:03:11;25.40;99.90
46085;DHT22;31823;47.032;8.310;2022-07-23T12:05:38;26.00;99.90
46085;DHT22;31823;47.032;8.310;2022-07-23T12:08:06;26.00;99.90
46085;DHT22;31823;47.032;8.310;2022-07-23T12:10:36;25.70;99.90
46085;DHT22;31823;47.032;8.310;2022-07-23T12:13:08;25.50;99.90
46085;DHT22;31823;47.032;8.310;2022-07-23T12:15:44;25.30;99.90
46085;DHT22;31823;47.032;8.310;2022-07-23T12:18:15;26.00;99.90
46085;DHT22;31823;47.032;8.310;2022-07-23T12:20:44;25.20;99.90
46085;DHT22;31823;47.032;8.310;2022-07-23T12:23:12;24.90;99.90
46085;DHT22;31823;47.032;8.310;2022-07-23T12:25:41;24.60;99.90
46085;DHT22;31823;47.032;8.310;2022-07-23T12:28:14;24.20;99.90
46085;DHT22;31823;47.032;8.310;2022-07-23T12:30:47;24.00;99.90
46085;DHT22;31823;47.032;8.310;2022-07-23T12:33:22;25.20;99.90
46085;DHT22;31823;47.032;8.310;2022-07-23T12:35:49;26.40;99.90
46085;DHT22;31823;47.032;8.310;2022-07-23T12:38:17;26.50;99.90
46085;DHT22;31823;47.032;8.310;2022-07-23T12:43:30;24.90;99.90
46085;DHT22;31823;47.032;8.310;2022-07-23T12:48:40;24.00;99.90
46085;DHT22;31823;47.032;8.310;2022-07-23T12:51:15;23.90;99.90
46085;DHT22;31823;47.032;8.310;2022-07-23T12:53:47;23.70;99.90
46085;DHT22;31823;47.032;8.310;2022-07-23T12:56:19;24.50;99.90
46085;DHT22;31823;47.032;8.310;2022-07-23T12:59:13;25.10;99.90
46085;DHT22;31823;47.032;8.310;2022-07-23T13:01:43;25.50;99.90
46085;DHT22;31823;47.032;8.310;2022-07-23T13:04:17;26.30;99.90
46085;DHT22;31823;47.032;8.310;2022-07-23T13:06:47;26.30;99.80
46085;DHT22;31823;47.032;8.310;2022-07-23T13:09:16;26.10;97.80
46085;DHT22;31823;47.032;8.310;2022-07-23T13:11:43;25.60;98.30
46085;DHT22;31823;47.032;8.310;2022-07-23T13:14:11;25.20;99.90
46085;DHT22;31823;47.032;8.310;2022-07-23T13:16:38;23.80;99.90
46085;DHT22;31823;47.032;8.310;2022-07-23T13:19:04;23.30;99.90
46085;DHT22;31823;47.032;8.310;2022-07-23T13:21:30;23.00;99.90
46085;DHT22;31823;47.032;8.310;2022-07-23T13:23:56;23.00;99.90
46085;DHT22;31823;47.032;8.310;2022-07-23T13:26:22;23.40;99.90
46085;DHT22;31823;47.032;8.310;2022-07-23T13:28:48;23.20;99.90
46085;DHT22;31823;47.032;8.310;2022-07-23T13:31:14;23.80;99.90
46085;DHT22;31823;47.032;8.310;2022-07-23T13:33:40;24.50;99.90
46085;DHT22;31823;47.032;8.310;2022-07-23T13:36:05;24.40;99.90
46085;DHT22;31823;47.032;8.310;2022-07-23T13:38:31;24.80;99.90
46085;DHT22;31823;47.032;8.310;2022-07-23T13:40:57;25.60;99.90
46085;DHT22;31823;47.032;8.310;2022-07-23T13:43:24;25.00;99.90
46085;DHT22;31823;47.032;8.310;2022-07-23T13:45:51;24.80;99.90
46085;DHT22;31823;47.032;8.310;2022-07-23T13:48:17;24.50;99.90
46085;DHT22;31823;47.032;8.310;2022-07-23T13:50:44;24.70;99.90
46085;DHT22;31823;47.032;8.310;2022-07-23T13:53:13;24.40;99.90
46085;DHT22;31823;47.032;8.310;2022-07-23T13:55:40;25.40;99.90
46085;DHT22;31823;47.032;8.310;2022-07-23T13:58:06;25.70;99.90
46085;DHT22;31823;47.032;8.310;2022-07-23T14:00:33;26.00;99.90
46085;DHT22;31823;47.032;8.310;2022-07-23T14:03:00;26.20;99.90
46085;DHT22;31823;47.032;8.310;2022-07-23T14:05:26;26.00;99.90
46085;DHT22;31823;47.032;8.310;2022-07-23T14:07:52;26.50;99.90
46085;DHT22;31823;47.032;8.310;2022-07-23T14:10:20;26.20;99.90
46085;DHT22;31823;47.032;8.310;2022-07-23T14:12:48;25.80;99.90
46085;DHT22;31823;47.032;8.310;2022-07-23T14:15:14;25.40;99.90
46085;DHT22;31823;47.032;8.310;2022-07-23T14:17:43;25.40;99.90
46085;DHT22;31823;47.032;8.310;2022-07-23T14:20:10;25.40;99.90
46085;DHT22;31823;47.032;8.310;2022-07-23T14:22:36;24.90;99.90
46085;DHT22;31823;47.032;8.310;2022-07-23T14:25:03;24.20;99.90
46085;DHT22;31823;47.032;8.310;2022-07-23T14:27:29;23.90;99.90
46085;DHT22;31823;47.032;8.310;2022-07-23T14:29:55;24.00;99.90
46085;DHT22;31823;47.032;8.310;2022-07-23T14:32:21;23.60;99.90
46085;DHT22;31823;47.032;8.310;2022-07-23T14:34:47;23.50;99.90
46085;DHT22;31823;47.032;8.310;2022-07-23T14:37:12;23.50;99.90
46085;DHT22;31823;47.032;8.310;2022-07-23T14:39:39;23.30;99.90
46085;DHT22;31823;47.032;8.310;2022-07-23T14:42:05;23.00;99.90
46085;DHT22;31823;47.032;8.310;2022-07-23T14:44:31;23.10;99.90
46085;DHT22;31823;47.032;8.310;2022-07-23T14:46:57;23.00;99.90
46085;DHT22;31823;47.032;8.310;2022-07-23T14:49:22;23.10;99.90
46085;DHT22;31823;47.032;8.310;2022-07-23T14:51:48;23.10;99.90
46085;DHT22;31823;47.032;8.310;2022-07-23T14:54:14;23.50;99.90
46085;DHT22;31823;47.032;8.310;2022-07-23T14:56:41;24.20;99.90
46085;DHT22;31823;47.032;8.310;2022-07-23T14:59:07;24.40;99.90
46085;DHT22;31823;47.032;8.310;2022-07-23T15:01:33;24.30;99.90
46085;DHT22;31823;47.032;8.310;2022-07-23T15:03:59;24.20;99.90
46085;DHT22;31823;47.032;8.310;2022-07-23T15:06:25;24.10;99.90
46085;DHT22;31823;47.032;8.310;2022-07-23T15:08:51;23.70;99.90
46085;DHT22;31823;47.032;8.310;2022-07-23T15:11:17;23.70;99.90
46085;DHT22;31823;47.032;8.310;2022-07-23T15:13:42;23.70;99.90
46085;DHT22;31823;47.032;8.310;2022-07-23T15:16:08;23.90;99.90
46085;DHT22;31823;47.032;8.310;2022-07-23T15:18:34;23.90;99.90
46085;DHT22;31823;47.032;8.310;2022-07-23T15:21:00;24.10;99.90
46085;DHT22;31823;47.032;8.310;2022-07-23T15:23:26;23.90;99.90
46085;DHT22;31823;47.032;8.310;2022-07-23T15:25:57;24.00;99.90
46085;DHT22;31823;47.032;8.310;2022-07-23T15:28:23;24.00;99.90
46085;DHT22;31823;47.032;8.310;2022-07-23T15:30:50;24.60;99.90
46085;DHT22;31823;47.032;8.310;2022-07-23T15:33:17;24.80;99.90
46085;DHT22;31823;47.032;8.310;2022-07-23T15:35:43;25.50;99.90
46085;DHT22;31823;47.032;8.310;2022-07-23T15:38:09;25.00;99.90
46085;DHT22;31823;47.032;8.310;2022-07-23T15:40:34;25.50;99.90
46085;DHT22;31823;47.032;8.310;2022-07-23T15:43:00;25.80;99.90
46085;DHT22;31823;47.032;8.310;2022-07-23T15:45:26;25.50;99.90
46085;DHT22;31823;47.032;8.310;2022-07-23T15:47:52;26.00;99.90
46085;DHT22;31823;47.032;8.310;2022-07-23T15:50:17;26.00;99.90
46085;DHT22;31823;47.032;8.310;2022-07-23T15:52:43;26.00;99.90
46085;DHT22;31823;47.032;8.310;2022-07-23T15:55:09;25.70;99.90
46085;DHT22;31823;47.032;8.310;2022-07-23T15:57:35;25.40;99.90
46085;DHT22;31823;47.032;8.310;2022-07-23T16:00:00;25.70;99.90
46085;DHT22;31823;47.032;8.310;2022-07-23T16:02:26;25.50;99.90
46085;DHT22;31823;47.032;8.310;2022-07-23T16:04:52;25.70;99.90
46085;DHT22;31823;47.032;8.310;2022-07-23T16:07:19;25.00;99.90
46085;DHT22;31823;47.032;8.310;2022-07-23T16:09:45;25.20;99.90
46085;DHT22;31823;47.032;8.310;2022-07-23T16:12:11;25.80;99.90
46085;DHT22;31823;47.032;8.310;2022-07-23T16:14:37;25.10;99.90
46085;DHT22;31823;47.032;8.310;2022-07-23T16:17:03;24.80;99.90
46085;DHT22;31823;47.032;8.310;2022-07-23T16:19:30;24.20;99.90
46085;DHT22;31823;47.032;8.310;2022-07-23T16:21:55;24.00;99.90